sensor_id;sensor_type;location;lat;lon;timestamp;P1;durP1;ratioP1;P2;durP2;ratioP2
14984;SDS011;7588;62.368;25.902;2023-05-07T00:00:00;2.73;;;2.47;;
14984;SDS011;7588;62.368;25.902;2023-05-07T00:02:26;2.40;;;2.20;;
14984;SDS011;7588;62.368;25.902;2023-05-07T00:04:52;2.40;;;2.20;;
14984;SDS011;7588;62.368;25.902;2023-05-07T00:07:17;3.80;;;2.30;;
14984;SDS011;7588;62.368;25.902;2023-05-07T00:09:43;2.47;;;2.27;;
14984;SDS011;7588;62.368;25.902;2023-05-07T00:12:09;2.53;;;2.33;;
14984;SDS011;7588;62.368;25.902;2023-05-07T00:14:35;2.17;;;2.07;;
14984;SDS011;7588;62.368;25.902;2023-05-07T00:17:00;2.90;;;2.23;;
14984;SDS011;7588;62.368;25.902;2023-05-07T00:19:26;2.20;;;2.10;;
14984;SDS011;7588;62.368;25.902;2023-05-07T00:21:52;2.60;;;2.40;;
14984;SDS011;7588;62.368;25.902;2023-05-07T00:24:19;3.57;;;2.20;;
14984;SDS011;7588;62.368;25.902;2023-05-07T00:26:44;2.27;;;2.10;;
14984;SDS011;7588;62.368;25.902;2023-05-07T00:29:10;2.50;;;2.23;;
14984;SDS011;7588;62.368;25.902;2023-05-07T00:31:36;3.30;;;2.70;;
14984;SDS011;7588;62.368;25.902;2023-05-07T00:34:01;2.73;;;2.10;;
14984;SDS011;7588;62.368;25.902;2023-05-07T00:36:27;3.23;;;2.07;;
14984;SDS011;7588;62.368;25.902;2023-05-07T00:38:54;2.33;;;2.20;;
14984;SDS011;7588;62.368;25.902;2023-05-07T00:41:21;2.73;;;2.37;;
14984;SDS011;7588;62.368;25.902;2023-05-07T00:43:47;2.77;;;2.57;;
14984;SDS011;7588;62.368;25.902;2023-05-07T00:46:13;2.70;;;2.50;;
14984;SDS011;7588;62.368;25.902;2023-05-07T00:48:40;2.43;;;2.23;;
14984;SDS011;7588;62.368;25.902;2023-05-07T00:51:06;2.10;;;2.00;;
14984;SDS011;7588;62.368;25.902;2023-05-07T00:53:32;2.30;;;2.10;;
14984;SDS011;7588;62.368;25.902;2023-05-07T00:55:58;2.87;;;2.57;;
14984;SDS011;7588;62.368;25.902;2023-05-07T00:58:25;3.37;;;2.37;;
14984;SDS011;7588;62.368;25.902;2023-05-07T01:00:51;3.97;;;2.67;;
14984;SDS011;7588;62.368;25.902;2023-05-07T01:03:17;2.20;;;2.10;;
14984;SDS011;7588;62.368;25.902;2023-05-07T01:05:43;2.63;;;2.30;;
14984;SDS011;7588;62.368;25.902;2023-05-07T01:08:11;2.80;;;2.57;;
14984;SDS011;7588;62.368;25.902;2023-05-07T01:10:37;2.80;;;2.60;;
14984;SDS011;7588;62.368;25.902;2023-05-07T01:13:03;2.40;;;2.20;;
14984;SDS011;7588;62.368;25.902;2023-05-07T01:15:30;2.73;;;2.47;;
14984;SDS011;7588;62.368;25.902;2023-05-07T01:17:55;2.60;;;2.40;;
14984;SDS011;7588;62.368;25.902;2023-05-07T01:20:22;2.80;;;2.60;;
14984;SDS011;7588;62.368;25.902;2023-05-07T01:22:48;2.43;;;2.13;;
14984;SDS011;7588;62.368;25.902;2023-05-07T01:25:15;3.57;;;2.27;;
14984;SDS011;7588;62.368;25.902;2023-05-07T01:27:41;2.77;;;2.57;;
14984;SDS011;7588;62.368;25.902;2023-05-07T01:30:07;2.90;;;2.53;;
14984;SDS011;7588;62.368;25.902;2023-05-07T01:32:35;2.57;;;2.37;;
14984;SDS011;7588;62.368;25.902;2023-05-07T01:35:05;4.27;;;2.63;;
14984;SDS011;7588;62.368;25.902;2023-05-07T01:37:32;3.53;;;3.13;;
14984;SDS011;7588;62.368;25.902;2023-05-07T01:39:58;2.63;;;2.43;;
14984;SDS011;7588;62.368;25.902;2023-05-07T01:42:25;2.97;;;2.57;;
14984;SDS011;7588;62.368;25.902;2023-05-07T01:44:51;3.03;;;2.57;;
14984;SDS011;7588;62.368;25.902;2023-05-07T01:47:17;2.90;;;2.60;;
14984;SDS011;7588;62.368;25.902;2023-05-07T01:49:43;4.97;;;2.53;;
14984;SDS011;7588;62.368;25.902;2023-05-07T01:52:10;2.53;;;2.33;;
14984;SDS011;7588;62.368;25.902;2023-05-07T01:54:36;2.10;;;2.00;;
14984;SDS011;7588;62.368;25.902;2023-05-07T01:57:02;2.40;;;2.20;;
14984;SDS011;7588;62.368;25.902;2023-05-07T01:59:28;2.97;;;2.77;;
14984;SDS011;7588;62.368;25.902;2023-05-07T02:01:54;4.67;;;2.33;;
14984;SDS011;7588;62.368;25.902;2023-05-07T02:04:19;4.33;;;2.50;;
14984;SDS011;7588;62.368;25.902;2023-05-07T02:06:45;2.40;;;2.20;;
14984;SDS011;7588;62.368;25.902;2023-05-07T02:09:11;4.40;;;2.37;;
14984;SDS011;7588;62.368;25.902;2023-05-07T02:11:36;2.27;;;2.00;;
14984;SDS011;7588;62.368;25.902;2023-05-07T02:14:02;2.40;;;2.20;;
14984;SDS011;7588;62.368;25.902;2023-05-07T02:16:28;2.93;;;2.40;;
14984;SDS011;7588;62.368;25.902;2023-05-07T02:18:53;2.33;;;2.10;;
14984;SDS011;7588;62.368;25.902;2023-05-07T02:21:19;3.03;;;2.17;;
14984;SDS011;7588;62.368;25.902;2023-05-07T02:23:45;2.37;;;2.17;;
14984;SDS011;7588;62.368;25.902;2023-05-07T02:26:11;2.67;;;2.47;;
14984;SDS011;7588;62.368;25.902;2023-05-07T02:28:36;1.90;;;1.80;;
14984;SDS011;7588;62.368;25.902;2023-05-07T02:31:05;2.57;;;2.37;;
14984;SDS011;7588;62.368;25.902;2023-05-07T02:33:31;2.13;;;1.90;;
14984;SDS011;7588;62.368;25.902;2023-05-07T02:35:57;1.80;;;1.70;;
14984;SDS011;7588;62.368;25.902;2023-05-07T02:38:30;2.63;;;2.43;;
14984;SDS011;7588;62.368;25.902;2023-05-07T02:40:56;2.00;;;1.80;;
14984;SDS011;7588;62.368;25.902;2023-05-07T02:43:22;2.23;;;2.10;;
14984;SDS011;7588;62.368;25.902;2023-05-07T02:45:47;3.60;;;2.20;;
14984;SDS011;7588;62.368;25.902;2023-05-07T02:48:13;2.50;;;2.30;;
14984;SDS011;7588;62.368;25.902;2023-05-07T02:50:38;2.40;;;2.20;;
14984;SDS011;7588;62.368;25.902;2023-05-07T02:53:04;2.17;;;2.07;;
14984;SDS011;7588;62.368;25.902;2023-05-07T02:55:30;2.60;;;2.00;;
14984;SDS011;7588;62.368;25.902;2023-05-07T02:57:56;2.30;;;2.10;;
14984;SDS011;7588;62.368;25.902;2023-05-07T03:00:21;2.80;;;2.10;;
14984;SDS011;7588;62.368;25.902;2023-05-07T03:02:47;2.47;;;2.00;;
14984;SDS011;7588;62.368;25.902;2023-05-07T03:05:13;1.80;;;1.70;;
14984;SDS011;7588;62.368;25.902;2023-05-07T03:07:39;2.40;;;2.20;;
14984;SDS011;7588;62.368;25.902;2023-05-07T03:10:06;2.90;;;2.20;;
14984;SDS011;7588;62.368;25.902;2023-05-07T03:12:32;3.57;;;2.20;;
14984;SDS011;7588;62.368;25.902;2023-05-07T03:14:57;1.93;;;1.83;;
14984;SDS011;7588;62.368;25.902;2023-05-07T03:17:23;2.00;;;1.80;;
14984;SDS011;7588;62.368;25.902;2023-05-07T03:19:49;2.30;;;2.10;;
14984;SDS011;7588;62.368;25.902;2023-05-07T03:22:14;1.73;;;1.63;;
14984;SDS011;7588;62.368;25.902;2023-05-07T03:24:40;2.07;;;1.93;;
14984;SDS011;7588;62.368;25.902;2023-05-07T03:27:06;2.33;;;2.20;;
14984;SDS011;7588;62.368;25.902;2023-05-07T03:29:32;1.80;;;1.70;;
14984;SDS011;7588;62.368;25.902;2023-05-07T03:31:57;2.13;;;1.97;;
14984;SDS011;7588;62.368;25.902;2023-05-07T03:34:23;1.70;;;1.60;;
14984;SDS011;7588;62.368;25.902;2023-05-07T03:36:49;2.10;;;2.00;;
14984;SDS011;7588;62.368;25.902;2023-05-07T03:39:14;2.00;;;1.90;;
14984;SDS011;7588;62.368;25.902;2023-05-07T03:41:40;1.97;;;1.70;;
14984;SDS011;7588;62.368;25.902;2023-05-07T03:44:06;2.30;;;2.17;;
14984;SDS011;7588;62.368;25.902;2023-05-07T03:46:32;1.90;;;1.70;;
14984;SDS011;7588;62.368;25.902;2023-05-07T03:48:58;2.53;;;2.00;;
14984;SDS011;7588;62.368;25.902;2023-05-07T03:51:25;2.80;;;1.70;;
14984;SDS011;7588;62.368;25.902;2023-05-07T03:53:51;2.00;;;1.90;;
14984;SDS011;7588;62.368;25.902;2023-05-07T03:56:19;1.97;;;1.77;;
14984;SDS011;7588;62.368;25.902;2023-05-07T03:58:47;1.80;;;1.70;;
14984;SDS011;7588;62.368;25.902;2023-05-07T04:01:12;1.80;;;1.70;;
14984;SDS011;7588;62.368;25.902;2023-05-07T04:03:38;2.00;;;1.90;;
14984;SDS011;7588;62.368;25.902;2023-05-07T04:06:04;2.10;;;1.90;;
14984;SDS011;7588;62.368;25.902;2023-05-07T04:08:29;2.23;;;1.90;;
14984;SDS011;7588;62.368;25.902;2023-05-07T04:10:56;2.00;;;1.67;;
14984;SDS011;7588;62.368;25.902;2023-05-07T04:13:22;1.70;;;1.60;;
14984;SDS011;7588;62.368;25.902;2023-05-07T04:15:48;1.70;;;1.60;;
14984;SDS011;7588;62.368;25.902;2023-05-07T04:18:14;2.23;;;1.77;;
14984;SDS011;7588;62.368;25.902;2023-05-07T04:20:40;1.70;;;1.60;;
14984;SDS011;7588;62.368;25.902;2023-05-07T04:23:06;1.60;;;1.50;;
14984;SDS011;7588;62.368;25.902;2023-05-07T04:25:32;2.00;;;1.90;;
14984;SDS011;7588;62.368;25.902;2023-05-07T04:27:58;2.00;;;1.80;;
14984;SDS011;7588;62.368;25.902;2023-05-07T04:30:24;1.80;;;1.70;;
14984;SDS011;7588;62.368;25.902;2023-05-07T04:32:51;1.63;;;1.50;;
14984;SDS011;7588;62.368;25.902;2023-05-07T04:35:17;1.60;;;1.50;;
14984;SDS011;7588;62.368;25.902;2023-05-07T04:37:42;1.80;;;1.70;;
14984;SDS011;7588;62.368;25.902;2023-05-07T04:40:08;2.17;;;2.00;;
14984;SDS011;7588;62.368;25.902;2023-05-07T04:42:35;1.77;;;1.67;;
14984;SDS011;7588;62.368;25.902;2023-05-07T04:45:01;1.60;;;1.50;;
14984;SDS011;7588;62.368;25.902;2023-05-07T04:47:27;1.63;;;1.50;;
14984;SDS011;7588;62.368;25.902;2023-05-07T04:49:53;1.73;;;1.47;;
14984;SDS011;7588;62.368;25.902;2023-05-07T04:52:19;2.70;;;1.60;;
14984;SDS011;7588;62.368;25.902;2023-05-07T04:54:45;1.50;;;1.40;;
14984;SDS011;7588;62.368;25.902;2023-05-07T04:57:11;2.10;;;1.40;;
14984;SDS011;7588;62.368;25.902;2023-05-07T04:59:36;1.50;;;1.40;;
14984;SDS011;7588;62.368;25.902;2023-05-07T05:02:02;1.60;;;1.50;;
14984;SDS011;7588;62.368;25.902;2023-05-07T05:04:29;1.30;;;1.20;;
14984;SDS011;7588;62.368;25.902;2023-05-07T05:06:55;1.90;;;1.57;;
14984;SDS011;7588;62.368;25.902;2023-05-07T05:09:21;1.57;;;1.47;;
14984;SDS011;7588;62.368;25.902;2023-05-07T05:11:47;1.20;;;1.10;;
14984;SDS011;7588;62.368;25.902;2023-05-07T05:14:13;1.40;;;1.30;;
14984;SDS011;7588;62.368;25.902;2023-05-07T05:16:38;4.00;;;1.40;;
14984;SDS011;7588;62.368;25.902;2023-05-07T05:19:04;1.77;;;1.40;;
14984;SDS011;7588;62.368;25.902;2023-05-07T05:21:30;2.17;;;1.20;;
14984;SDS011;7588;62.368;25.902;2023-05-07T05:23:57;1.57;;;1.40;;
14984;SDS011;7588;62.368;25.902;2023-05-07T05:26:23;1.60;;;1.50;;
14984;SDS011;7588;62.368;25.902;2023-05-07T05:28:48;1.30;;;1.20;;
14984;SDS011;7588;62.368;25.902;2023-05-07T05:31:15;1.47;;;1.37;;
14984;SDS011;7588;62.368;25.902;2023-05-07T05:33:41;1.40;;;1.30;;
14984;SDS011;7588;62.368;25.902;2023-05-07T05:36:09;1.57;;;1.37;;
14984;SDS011;7588;62.368;25.902;2023-05-07T05:38:35;2.27;;;1.60;;
14984;SDS011;7588;62.368;25.902;2023-05-07T05:41:01;2.57;;;1.60;;
14984;SDS011;7588;62.368;25.902;2023-05-07T05:43:26;3.17;;;1.50;;
14984;SDS011;7588;62.368;25.902;2023-05-07T05:45:52;2.57;;;1.50;;
14984;SDS011;7588;62.368;25.902;2023-05-07T05:48:18;4.03;;;2.00;;
14984;SDS011;7588;62.368;25.902;2023-05-07T05:50:43;1.97;;;1.30;;
14984;SDS011;7588;62.368;25.902;2023-05-07T05:53:09;1.97;;;1.57;;
14984;SDS011;7588;62.368;25.902;2023-05-07T05:55:35;1.60;;;1.50;;
14984;SDS011;7588;62.368;25.902;2023-05-07T05:58:01;2.27;;;1.40;;
14984;SDS011;7588;62.368;25.902;2023-05-07T06:00:27;1.70;;;1.60;;
14984;SDS011;7588;62.368;25.902;2023-05-07T06:02:53;1.70;;;1.60;;
14984;SDS011;7588;62.368;25.902;2023-05-07T06:05:18;1.37;;;1.27;;
14984;SDS011;7588;62.368;25.902;2023-05-07T06:07:44;1.47;;;1.40;;
14984;SDS011;7588;62.368;25.902;2023-05-07T06:10:10;1.60;;;1.50;;
14984;SDS011;7588;62.368;25.902;2023-05-07T06:12:35;1.60;;;1.30;;
14984;SDS011;7588;62.368;25.902;2023-05-07T06:15:03;2.33;;;1.53;;
14984;SDS011;7588;62.368;25.902;2023-05-07T06:17:29;2.13;;;1.70;;
14984;SDS011;7588;62.368;25.902;2023-05-07T06:19:55;3.57;;;1.80;;
14984;SDS011;7588;62.368;25.902;2023-05-07T06:22:21;1.90;;;1.70;;
14984;SDS011;7588;62.368;25.902;2023-05-07T06:24:46;1.70;;;1.60;;
14984;SDS011;7588;62.368;25.902;2023-05-07T06:27:12;2.37;;;1.10;;
14984;SDS011;7588;62.368;25.902;2023-05-07T06:29:38;2.67;;;1.40;;
14984;SDS011;7588;62.368;25.902;2023-05-07T06:32:10;1.60;;;1.50;;
14984;SDS011;7588;62.368;25.902;2023-05-07T06:34:37;1.70;;;1.60;;
14984;SDS011;7588;62.368;25.902;2023-05-07T06:37:04;2.17;;;1.33;;
14984;SDS011;7588;62.368;25.902;2023-05-07T06:39:30;1.50;;;1.40;;
14984;SDS011;7588;62.368;25.902;2023-05-07T06:41:56;1.63;;;1.30;;
14984;SDS011;7588;62.368;25.902;2023-05-07T06:44:22;3.03;;;1.47;;
14984;SDS011;7588;62.368;25.902;2023-05-07T06:46:48;1.97;;;1.77;;
14984;SDS011;7588;62.368;25.902;2023-05-07T06:49:13;1.90;;;1.50;;
14984;SDS011;7588;62.368;25.902;2023-05-07T06:51:39;1.30;;;1.20;;
14984;SDS011;7588;62.368;25.902;2023-05-07T06:54:06;1.40;;;1.30;;
14984;SDS011;7588;62.368;25.902;2023-05-07T06:56:32;2.87;;;1.50;;
14984;SDS011;7588;62.368;25.902;2023-05-07T06:58:59;2.50;;;1.27;;
14984;SDS011;7588;62.368;25.902;2023-05-07T07:01:25;1.50;;;1.40;;
14984;SDS011;7588;62.368;25.902;2023-05-07T07:03:51;1.50;;;1.40;;
14984;SDS011;7588;62.368;25.902;2023-05-07T07:06:17;2.03;;;1.50;;
14984;SDS011;7588;62.368;25.902;2023-05-07T07:08:43;1.60;;;1.50;;
14984;SDS011;7588;62.368;25.902;2023-05-07T07:11:09;1.37;;;1.27;;
14984;SDS011;7588;62.368;25.902;2023-05-07T07:13:35;1.93;;;1.20;;
14984;SDS011;7588;62.368;25.902;2023-05-07T07:16:01;2.93;;;1.67;;
14984;SDS011;7588;62.368;25.902;2023-05-07T07:18:26;2.03;;;1.60;;
14984;SDS011;7588;62.368;25.902;2023-05-07T07:20:52;1.37;;;1.27;;
14984;SDS011;7588;62.368;25.902;2023-05-07T07:23:18;1.83;;;1.50;;
14984;SDS011;7588;62.368;25.902;2023-05-07T07:25:44;3.20;;;1.70;;
14984;SDS011;7588;62.368;25.902;2023-05-07T07:28:10;2.23;;;1.40;;
14984;SDS011;7588;62.368;25.902;2023-05-07T07:30:36;1.60;;;1.50;;
14984;SDS011;7588;62.368;25.902;2023-05-07T07:33:02;2.27;;;1.60;;
14984;SDS011;7588;62.368;25.902;2023-05-07T07:35:37;1.83;;;1.43;;
14984;SDS011;7588;62.368;25.902;2023-05-07T07:38:02;1.97;;;1.40;;
14984;SDS011;7588;62.368;25.902;2023-05-07T07:40:28;2.23;;;1.40;;
14984;SDS011;7588;62.368;25.902;2023-05-07T07:42:54;1.40;;;1.30;;
14984;SDS011;7588;62.368;25.902;2023-05-07T07:45:21;5.23;;;1.37;;
14984;SDS011;7588;62.368;25.902;2023-05-07T07:47:47;1.63;;;1.33;;
14984;SDS011;7588;62.368;25.902;2023-05-07T07:50:13;1.50;;;1.40;;
14984;SDS011;7588;62.368;25.902;2023-05-07T07:52:39;1.40;;;1.20;;
14984;SDS011;7588;62.368;25.902;2023-05-07T07:55:04;1.90;;;1.27;;
14984;SDS011;7588;62.368;25.902;2023-05-07T07:57:31;1.90;;;1.30;;
14984;SDS011;7588;62.368;25.902;2023-05-07T07:59:56;1.50;;;1.37;;
14984;SDS011;7588;62.368;25.902;2023-05-07T08:02:22;1.90;;;1.50;;
14984;SDS011;7588;62.368;25.902;2023-05-07T08:04:48;1.37;;;1.30;;
14984;SDS011;7588;62.368;25.902;2023-05-07T08:07:13;1.63;;;1.50;;
14984;SDS011;7588;62.368;25.902;2023-05-07T08:09:39;1.83;;;1.20;;
14984;SDS011;7588;62.368;25.902;2023-05-07T08:12:06;1.50;;;1.40;;
14984;SDS011;7588;62.368;25.902;2023-05-07T08:14:32;2.70;;;1.40;;
14984;SDS011;7588;62.368;25.902;2023-05-07T08:16:58;1.30;;;1.20;;
14984;SDS011;7588;62.368;25.902;2023-05-07T08:19:24;2.17;;;1.70;;
14984;SDS011;7588;62.368;25.902;2023-05-07T08:21:50;1.73;;;1.17;;
14984;SDS011;7588;62.368;25.902;2023-05-07T08:24:16;1.30;;;1.20;;
14984;SDS011;7588;62.368;25.902;2023-05-07T08:26:42;1.30;;;1.20;;
14984;SDS011;7588;62.368;25.902;2023-05-07T08:29:09;1.50;;;1.40;;
14984;SDS011;7588;62.368;25.902;2023-05-07T08:31:34;3.53;;;1.50;;
14984;SDS011;7588;62.368;25.902;2023-05-07T08:34:00;2.90;;;1.50;;
14984;SDS011;7588;62.368;25.902;2023-05-07T08:36:26;1.50;;;1.40;;
14984;SDS011;7588;62.368;25.902;2023-05-07T08:38:53;3.93;;;1.47;;
14984;SDS011;7588;62.368;25.902;2023-05-07T08:41:19;1.63;;;1.20;;
14984;SDS011;7588;62.368;25.902;2023-05-07T08:43:47;2.80;;;1.50;;
14984;SDS011;7588;62.368;25.902;2023-05-07T08:46:16;4.40;;;1.53;;
14984;SDS011;7588;62.368;25.902;2023-05-07T08:48:44;7.30;;;2.27;;
14984;SDS011;7588;62.368;25.902;2023-05-07T08:51:13;1.60;;;1.40;;
14984;SDS011;7588;62.368;25.902;2023-05-07T08:53:41;1.33;;;1.23;;
14984;SDS011;7588;62.368;25.902;2023-05-07T08:56:08;1.40;;;1.30;;
14984;SDS011;7588;62.368;25.902;2023-05-07T08:58:34;3.47;;;1.13;;
14984;SDS011;7588;62.368;25.902;2023-05-07T09:01:01;2.27;;;1.30;;
14984;SDS011;7588;62.368;25.902;2023-05-07T09:03:32;1.73;;;1.40;;
14984;SDS011;7588;62.368;25.902;2023-05-07T09:05:58;4.23;;;1.30;;
14984;SDS011;7588;62.368;25.902;2023-05-07T09:08:27;1.33;;;1.23;;
14984;SDS011;7588;62.368;25.902;2023-05-07T09:10:53;1.43;;;1.33;;
14984;SDS011;7588;62.368;25.902;2023-05-07T09:13:19;1.80;;;1.30;;
14984;SDS011;7588;62.368;25.902;2023-05-07T09:15:45;1.40;;;1.30;;
14984;SDS011;7588;62.368;25.902;2023-05-07T09:18:14;1.97;;;1.40;;
14984;SDS011;7588;62.368;25.902;2023-05-07T09:20:40;1.50;;;1.40;;
14984;SDS011;7588;62.368;25.902;2023-05-07T09:23:06;2.30;;;1.30;;
14984;SDS011;7588;62.368;25.902;2023-05-07T09:25:33;1.90;;;1.60;;
14984;SDS011;7588;62.368;25.902;2023-05-07T09:28:00;1.87;;;1.03;;
14984;SDS011;7588;62.368;25.902;2023-05-07T09:30:27;1.53;;;0.90;;
14984;SDS011;7588;62.368;25.902;2023-05-07T09:33:00;1.40;;;1.30;;
14984;SDS011;7588;62.368;25.902;2023-05-07T09:35:27;2.40;;;1.70;;
14984;SDS011;7588;62.368;25.902;2023-05-07T09:37:54;1.30;;;1.20;;
14984;SDS011;7588;62.368;25.902;2023-05-07T09:40:25;2.20;;;0.93;;
14984;SDS011;7588;62.368;25.902;2023-05-07T09:42:52;2.10;;;1.33;;
14984;SDS011;7588;62.368;25.902;2023-05-07T09:45:25;2.47;;;1.20;;
14984;SDS011;7588;62.368;25.902;2023-05-07T09:47:53;1.80;;;1.30;;
14984;SDS011;7588;62.368;25.902;2023-05-07T09:50:27;2.70;;;1.30;;
14984;SDS011;7588;62.368;25.902;2023-05-07T09:52:55;2.93;;;1.10;;
14984;SDS011;7588;62.368;25.902;2023-05-07T09:55:22;2.43;;;1.00;;
14984;SDS011;7588;62.368;25.902;2023-05-07T09:57:50;1.73;;;1.33;;
14984;SDS011;7588;62.368;25.902;2023-05-07T10:00:18;1.93;;;1.13;;
14984;SDS011;7588;62.368;25.902;2023-05-07T10:02:50;1.20;;;1.10;;
14984;SDS011;7588;62.368;25.902;2023-05-07T10:05:20;1.03;;;1.03;;
14984;SDS011;7588;62.368;25.902;2023-05-07T10:07:47;2.03;;;1.17;;
14984;SDS011;7588;62.368;25.902;2023-05-07T10:10:14;2.23;;;1.10;;
14984;SDS011;7588;62.368;25.902;2023-05-07T10:12:40;2.40;;;1.20;;
14984;SDS011;7588;62.368;25.902;2023-05-07T10:15:07;1.33;;;1.23;;
14984;SDS011;7588;62.368;25.902;2023-05-07T10:17:37;2.30;;;1.20;;
14984;SDS011;7588;62.368;25.902;2023-05-07T10:20:04;2.57;;;1.23;;
14984;SDS011;7588;62.368;25.902;2023-05-07T10:22:37;5.20;;;1.20;;
14984;SDS011;7588;62.368;25.902;2023-05-07T10:25:18;1.67;;;1.00;;
14984;SDS011;7588;62.368;25.902;2023-05-07T10:27:46;1.45;;;1.10;;
14984;SDS011;7588;62.368;25.902;2023-05-07T10:33:08;1.80;;;1.00;;
14984;SDS011;7588;62.368;25.902;2023-05-07T10:35:40;0.88;;;0.82;;
14984;SDS011;7588;62.368;25.902;2023-05-07T10:38:08;1.23;;;1.08;;
14984;SDS011;7588;62.368;25.902;2023-05-07T10:40:34;3.15;;;1.30;;
14984;SDS011;7588;62.368;25.902;2023-05-07T10:43:01;4.70;;;1.17;;
14984;SDS011;7588;62.368;25.902;2023-05-07T10:45:30;1.58;;;0.88;;
14984;SDS011;7588;62.368;25.902;2023-05-07T10:50:38;1.92;;;1.65;;
14984;SDS011;7588;62.368;25.902;2023-05-07T10:55:43;1.80;;;1.00;;
14984;SDS011;7588;62.368;25.902;2023-05-07T10:58:30;1.60;;;1.10;;
14984;SDS011;7588;62.368;25.902;2023-05-07T11:01:00;1.67;;;1.17;;
14984;SDS011;7588;62.368;25.902;2023-05-07T11:03:27;2.28;;;1.10;;
14984;SDS011;7588;62.368;25.902;2023-05-07T11:06:09;1.20;;;1.10;;
14984;SDS011;7588;62.368;25.902;2023-05-07T11:11:17;1.67;;;0.90;;
14984;SDS011;7588;62.368;25.902;2023-05-07T11:13:49;1.55;;;1.00;;
14984;SDS011;7588;62.368;25.902;2023-05-07T11:16:18;1.17;;;1.10;;
14984;SDS011;7588;62.368;25.902;2023-05-07T11:18:46;1.45;;;1.00;;
14984;SDS011;7588;62.368;25.902;2023-05-07T11:21:34;1.00;;;0.90;;
14984;SDS011;7588;62.368;25.902;2023-05-07T11:24:04;1.50;;;1.10;;
14984;SDS011;7588;62.368;25.902;2023-05-07T11:26:31;1.35;;;1.20;;
14984;SDS011;7588;62.368;25.902;2023-05-07T11:31:42;1.30;;;1.20;;
14984;SDS011;7588;62.368;25.902;2023-05-07T11:34:09;4.18;;;1.08;;
14984;SDS011;7588;62.368;25.902;2023-05-07T11:36:37;1.20;;;1.10;;
14984;SDS011;7588;62.368;25.902;2023-05-07T11:41:54;1.20;;;1.10;;
14984;SDS011;7588;62.368;25.902;2023-05-07T11:44:20;1.08;;;1.08;;
14984;SDS011;7588;62.368;25.902;2023-05-07T11:46:46;1.10;;;0.93;;
14984;SDS011;7588;62.368;25.902;2023-05-07T11:49:12;1.55;;;1.00;;
14984;SDS011;7588;62.368;25.902;2023-05-07T11:51:37;1.75;;;1.20;;
14984;SDS011;7588;62.368;25.902;2023-05-07T11:54:04;1.05;;;0.85;;
14984;SDS011;7588;62.368;25.902;2023-05-07T11:56:33;1.25;;;1.15;;
14984;SDS011;7588;62.368;25.902;2023-05-07T11:59:00;1.65;;;0.95;;
14984;SDS011;7588;62.368;25.902;2023-05-07T12:01:26;2.05;;;1.25;;
14984;SDS011;7588;62.368;25.902;2023-05-07T12:03:51;1.88;;;1.08;;
14984;SDS011;7588;62.368;25.902;2023-05-07T12:06:17;1.67;;;0.85;;
14984;SDS011;7588;62.368;25.902;2023-05-07T12:08:44;1.30;;;1.20;;
14984;SDS011;7588;62.368;25.902;2023-05-07T12:11:12;2.38;;;1.42;;
14984;SDS011;7588;62.368;25.902;2023-05-07T12:13:41;1.75;;;1.17;;
14984;SDS011;7588;62.368;25.902;2023-05-07T12:16:06;1.42;;;1.00;;
14984;SDS011;7588;62.368;25.902;2023-05-07T12:18:33;2.15;;;1.45;;
14984;SDS011;7588;62.368;25.902;2023-05-07T12:21:00;1.83;;;0.93;;
14984;SDS011;7588;62.368;25.902;2023-05-07T12:23:26;1.75;;;0.93;;
14984;SDS011;7588;62.368;25.902;2023-05-07T12:25:52;1.85;;;1.13;;
14984;SDS011;7588;62.368;25.902;2023-05-07T12:28:19;3.15;;;1.20;;
14984;SDS011;7588;62.368;25.902;2023-05-07T12:30:47;1.30;;;1.20;;
14984;SDS011;7588;62.368;25.902;2023-05-07T12:33:18;1.50;;;0.75;;
14984;SDS011;7588;62.368;25.902;2023-05-07T12:35:48;2.22;;;1.10;;
14984;SDS011;7588;62.368;25.902;2023-05-07T12:38:15;1.02;;;0.93;;
14984;SDS011;7588;62.368;25.902;2023-05-07T12:40:49;1.90;;;1.02;;
14984;SDS011;7588;62.368;25.902;2023-05-07T12:43:23;5.40;;;1.35;;
14984;SDS011;7588;62.368;25.902;2023-05-07T12:45:50;2.55;;;1.17;;
14984;SDS011;7588;62.368;25.902;2023-05-07T12:48:19;0.90;;;0.90;;
14984;SDS011;7588;62.368;25.902;2023-05-07T12:50:45;1.70;;;1.20;;
14984;SDS011;7588;62.368;25.902;2023-05-07T12:53:21;1.38;;;1.08;;
14984;SDS011;7588;62.368;25.902;2023-05-07T12:55:49;2.83;;;1.10;;
14984;SDS011;7588;62.368;25.902;2023-05-07T12:58:17;1.20;;;0.93;;
14984;SDS011;7588;62.368;25.902;2023-05-07T13:00:45;1.33;;;1.10;;
14984;SDS011;7588;62.368;25.902;2023-05-07T13:03:17;2.25;;;1.20;;
14984;SDS011;7588;62.368;25.902;2023-05-07T13:05:51;2.45;;;1.10;;
14984;SDS011;7588;62.368;25.902;2023-05-07T13:08:24;2.45;;;0.98;;
14984;SDS011;7588;62.368;25.902;2023-05-07T13:10:51;2.33;;;1.58;;
14984;SDS011;7588;62.368;25.902;2023-05-07T13:13:18;1.83;;;1.33;;
14984;SDS011;7588;62.368;25.902;2023-05-07T13:15:45;1.37;;;1.20;;
14984;SDS011;7588;62.368;25.902;2023-05-07T13:18:11;6.57;;;1.30;;
14984;SDS011;7588;62.368;25.902;2023-05-07T13:20:36;1.73;;;1.33;;
14984;SDS011;7588;62.368;25.902;2023-05-07T13:23:03;3.37;;;1.50;;
14984;SDS011;7588;62.368;25.902;2023-05-07T13:25:29;1.03;;;0.93;;
14984;SDS011;7588;62.368;25.902;2023-05-07T13:27:58;1.03;;;1.00;;
14984;SDS011;7588;62.368;25.902;2023-05-07T13:30:24;1.67;;;1.30;;
14984;SDS011;7588;62.368;25.902;2023-05-07T13:32:51;1.20;;;1.10;;
14984;SDS011;7588;62.368;25.902;2023-05-07T13:35:20;1.43;;;1.33;;
14984;SDS011;7588;62.368;25.902;2023-05-07T13:37:46;1.20;;;1.10;;
14984;SDS011;7588;62.368;25.902;2023-05-07T13:40:13;1.73;;;1.40;;
14984;SDS011;7588;62.368;25.902;2023-05-07T13:42:39;1.73;;;1.10;;
14984;SDS011;7588;62.368;25.902;2023-05-07T13:45:05;1.57;;;1.23;;
14984;SDS011;7588;62.368;25.902;2023-05-07T13:47:31;3.33;;;1.53;;
14984;SDS011;7588;62.368;25.902;2023-05-07T13:49:56;2.67;;;1.10;;
14984;SDS011;7588;62.368;25.902;2023-05-07T13:52:22;3.00;;;1.30;;
14984;SDS011;7588;62.368;25.902;2023-05-07T13:54:48;3.33;;;1.10;;
14984;SDS011;7588;62.368;25.902;2023-05-07T13:57:13;7.90;;;1.37;;
14984;SDS011;7588;62.368;25.902;2023-05-07T13:59:40;2.80;;;1.27;;
14984;SDS011;7588;62.368;25.902;2023-05-07T14:02:06;2.03;;;1.40;;
14984;SDS011;7588;62.368;25.902;2023-05-07T14:04:31;2.03;;;1.23;;
14984;SDS011;7588;62.368;25.902;2023-05-07T14:06:57;2.03;;;1.30;;
14984;SDS011;7588;62.368;25.902;2023-05-07T14:09:23;1.00;;;1.00;;
14984;SDS011;7588;62.368;25.902;2023-05-07T14:11:48;1.83;;;1.30;;
14984;SDS011;7588;62.368;25.902;2023-05-07T14:14:16;2.10;;;1.30;;
14984;SDS011;7588;62.368;25.902;2023-05-07T14:16:43;2.40;;;1.40;;
14984;SDS011;7588;62.368;25.902;2023-05-07T14:19:09;2.60;;;1.20;;
14984;SDS011;7588;62.368;25.902;2023-05-07T14:21:35;3.03;;;1.40;;
14984;SDS011;7588;62.368;25.902;2023-05-07T14:24:00;3.53;;;1.47;;
14984;SDS011;7588;62.368;25.902;2023-05-07T14:26:26;2.03;;;1.20;;
14984;SDS011;7588;62.368;25.902;2023-05-07T14:28:52;2.43;;;1.50;;
14984;SDS011;7588;62.368;25.902;2023-05-07T14:31:20;4.93;;;1.50;;
14984;SDS011;7588;62.368;25.902;2023-05-07T14:33:46;1.37;;;1.17;;
14984;SDS011;7588;62.368;25.902;2023-05-07T14:36:11;1.80;;;1.30;;
14984;SDS011;7588;62.368;25.902;2023-05-07T14:38:37;2.03;;;1.20;;
14984;SDS011;7588;62.368;25.902;2023-05-07T14:41:03;1.43;;;1.30;;
14984;SDS011;7588;62.368;25.902;2023-05-07T14:43:29;1.37;;;1.27;;
14984;SDS011;7588;62.368;25.902;2023-05-07T14:45:54;2.23;;;1.10;;
14984;SDS011;7588;62.368;25.902;2023-05-07T14:48:20;1.67;;;1.57;;
14984;SDS011;7588;62.368;25.902;2023-05-07T14:50:49;1.40;;;1.30;;
14984;SDS011;7588;62.368;25.902;2023-05-07T14:53:15;2.67;;;1.60;;
14984;SDS011;7588;62.368;25.902;2023-05-07T14:55:41;2.63;;;1.30;;
14984;SDS011;7588;62.368;25.902;2023-05-07T14:58:06;1.47;;;1.37;;
14984;SDS011;7588;62.368;25.902;2023-05-07T15:00:33;2.10;;;1.30;;